Time;durP1;ratioP1;P1;durP2;ratioP2;P2;SDS_P1;SDS_P2;PMS_P1;PMS_P2;Temp;Humidity;BMP_temperature;BMP_pressure;BME280_temperature;BME280_humidity;BME280_pressure;Samples;Min_cycle;Max_cycle;Signal;HPM_P1;HPM_P2
2024/04/09 00:00:39;;;;;;;21.08;5.40;;;;;;;16.21;65.97;99137.19;2643626;27;20010;-79
2024/04/09 00:01:53;;;;;;;18.95;4.57;;;;;;;16.22;66.03;99147.63;2644774;27;20025;-79
2024/04/09 00:03:08;;;;;;;18.83;5.13;;;;;;;16.25;66.50;99141.34;2627044;27;20622;-79
2024/04/09 00:04:21;;;;;;;17.38;5.32;;;;;;;16.25;66.22;99136.94;2645195;27;20073;-79
2024/04/09 00:05:39;;;;;;;37.30;7.47;;;;;;;16.25;66.05;99146.63;2642492;27;20015;-81
2024/04/09 00:06:52;;;;;;;16.85;6.47;;;;;;;16.21;66.10;99140.69;2646592;27;20123;-80
2024/04/09 00:08:07;;;;;;;30.38;7.85;;;;;;;16.16;65.91;99142.72;2655599;27;20100;-80
2024/04/09 00:09:20;;;;;;;21.63;5.95;;;;;;;16.12;66.46;99138.56;2628341;27;20007;-81
2024/04/09 00:10:36;;;;;;;22.70;7.38;;;;;;;16.05;66.32;99147.72;2646408;27;20014;-81
2024/04/09 00:11:53;;;;;;;17.65;5.30;;;;;;;15.97;66.57;99145.50;2639797;27;20003;-80
2024/04/09 00:13:06;;;;;;;19.38;6.40;;;;;;;15.92;66.52;99145.75;2640209;27;20003;-79
2024/04/09 00:14:19;;;;;;;21.15;6.15;;;;;;;15.91;66.29;99146.69;2637058;27;20017;-80
2024/04/09 00:15:36;;;;;;;15.65;6.80;;;;;;;15.90;66.79;99144.13;2640512;27;20010;-78
2024/04/09 00:16:56;;;;;;;15.20;5.72;;;;;;;15.88;67.03;99144.22;2641632;27;20017;-77
2024/04/09 00:18:11;;;;;;;18.33;5.75;;;;;;;15.85;66.93;99143.53;2643094;27;20066;-78
2024/04/09 00:19:24;;;;;;;27.35;6.43;;;;;;;15.86;67.11;99151.34;2665674;27;20005;-79
2024/04/09 00:20:39;;;;;;;13.32;5.20;;;;;;;15.85;67.25;99149.66;2640857;27;19994;-80
2024/04/09 00:21:52;;;;;;;14.18;5.25;;;;;;;15.82;67.21;99151.59;2641240;27;20096;-80
2024/04/09 00:23:06;;;;;;;24.67;6.25;;;;;;;15.79;67.68;99143.88;2636157;27;20025;-79
2024/04/09 00:24:19;;;;;;;16.42;4.93;;;;;;;15.78;67.74;99147.44;2643930;27;20364;-80
2024/04/09 00:25:37;;;;;;;20.27;6.32;;;;;;;15.77;67.42;99146.56;2644233;27;20046;-78
2024/04/09 00:26:50;;;;;;;18.67;5.13;;;;;;;15.75;67.96;99151.09;2646765;27;20010;-79
2024/04/09 00:28:03;;;;;;;15.85;5.28;;;;;;;15.72;67.88;99147.75;2664256;27;20054;-78
2024/04/09 00:29:17;;;;;;;14.10;6.03;;;;;;;15.66;68.07;99144.50;2648184;27;20021;-79
2024/04/09 00:30:30;;;;;;;17.10;5.85;;;;;;;15.61;67.83;99141.25;2655832;27;20001;-79
2024/04/09 00:31:43;;;;;;;17.20;5.72;;;;;;;15.58;68.18;99137.97;2630429;27;20080;-79
2024/04/09 00:32:57;;;;;;;25.90;5.15;;;;;;;15.55;67.85;99133.72;2641062;27;20014;-80
2024/04/09 00:34:10;;;;;;;15.38;7.78;;;;;;;15.54;68.21;99136.41;2635409;27;20003;-80
2024/04/09 00:35:26;;;;;;;33.15;7.25;;;;;;;15.52;68.43;99131.25;2640022;27;20010;-78
2024/04/09 00:36:40;;;;;;;16.75;5.60;;;;;;;15.53;68.01;99132.94;2635987;27;20129;-78
2024/04/09 00:37:56;;;;;;;19.10;7.07;;;;;;;15.52;68.40;99133.03;2640026;27;20433;-79
2024/04/09 00:39:22;;;;;;;16.45;5.28;;;;;;;15.53;68.80;99129.47;2647666;26;20001;-78
2024/04/09 00:40:36;;;;;;;19.73;5.60;;;;;;;15.51;68.92;99124.28;2651314;27;20080;-80
2024/04/09 00:41:50;;;;;;;14.27;5.72;;;;;;;15.50;69.14;99127.84;2642528;26;20006;-81
2024/04/09 00:43:04;;;;;;;21.23;7.03;;;;;;;15.48;69.43;99125.28;2640299;27;19994;-80
2024/04/09 00:44:17;;;;;;;13.48;5.10;;;;;;;15.49;69.25;99120.91;2639779;27;20496;-79
2024/04/09 00:45:31;;;;;;;21.10;7.00;;;;;;;15.50;69.58;99127.84;2647019;27;20034;-79
2024/04/09 00:46:46;;;;;;;31.55;6.05;;;;;;;15.51;69.50;99128.69;2637158;27;20578;-79
2024/04/09 00:48:00;;;;;;;22.65;6.35;;;;;;;15.49;69.32;99131.41;2642120;27;20063;-78
2024/04/09 00:49:13;;;;;;;22.25;6.15;;;;;;;15.49;69.02;99131.41;2661928;27;20395;-78
2024/04/09 00:50:27;;;;;;;17.27;6.15;;;;;;;15.49;69.06;99131.41;2631664;27;20070;-79
2024/04/09 00:51:48;;;;;;;27.92;7.15;;;;;;;15.52;69.25;99139.16;2645745;27;19998;-80
2024/04/09 00:53:01;;;;;;;24.00;6.53;;;;;;;15.56;69.15;99137.19;2651499;27;20007;-80
2024/04/09 00:54:17;;;;;;;16.50;5.53;;;;;;;15.60;69.12;99144.00;2658826;27;20005;-79
2024/04/09 00:55:32;;;;;;;23.40;6.68;;;;;;;15.64;68.92;99154.28;2666882;26;20002;-79
2024/04/09 00:56:47;;;;;;;24.80;6.10;;;;;;;15.69;68.47;99168.06;2638014;27;19999;-78
2024/04/09 00:58:03;;;;;;;24.35;5.80;;;;;;;15.73;67.71;99166.09;2639509;27;20014;-78
2024/04/09 00:59:16;;;;;;;23.77;5.93;;;;;;;15.77;67.11;99167.63;2652035;27;19999;-78
2024/04/09 01:00:29;;;;;;;38.58;7.93;;;;;;;15.82;66.90;99170.00;2648627;22;19999;-77
2024/04/09 01:01:46;;;;;;;19.38;7.03;;;;;;;15.87;66.20;99168.81;2626925;27;20018;-77
2024/04/09 01:03:00;;;;;;;15.40;6.22;;;;;;;15.94;65.68;99173.78;2636517;27;20039;-77
2024/04/09 01:04:13;;;;;;;24.17;7.05;;;;;;;15.98;65.79;99170.91;2626466;27;20007;-77
2024/04/09 01:05:27;;;;;;;15.38;5.55;;;;;;;16.03;65.16;99168.88;2637438;27;20018;-77
2024/04/09 01:06:41;;;;;;;18.40;6.43;;;;;;;16.09;64.98;99172.94;2637128;27;20031;-76
2024/04/09 01:07:54;;;;;;;21.20;5.35;;;;;;;16.12;64.54;99164.88;2626641;27;20507;-77
2024/04/09 01:09:08;;;;;;;31.60;8.88;;;;;;;16.15;64.96;99164.69;2626817;27;20019;-78
2024/04/09 01:10:22;;;;;;;27.45;8.05;;;;;;;16.18;64.99;99161.88;2637987;27;20014;-77
2024/04/09 01:11:35;;;;;;;23.17;5.65;;;;;;;16.21;64.87;99155.59;2637433;27;20007;-77
2024/04/09 01:12:48;;;;;;;18.40;6.07;;;;;;;16.23;64.67;99157.22;2637951;27;20357;-77
2024/04/09 01:14:01;;;;;;;19.48;5.05;;;;;;;16.24;64.64;99151.03;2653998;27;20391;-77
2024/04/09 01:15:15;;;;;;;21.45;5.97;;;;;;;16.25;64.81;99152.72;2637555;27;20384;-78
2024/04/09 01:16:28;;;;;;;20.55;6.28;;;;;;;16.25;65.15;99159.78;2637371;27;20019;-76
2024/04/09 01:17:41;;;;;;;18.73;6.70;;;;;;;16.25;64.93;99159.78;2637744;27;20163;-77
2024/04/09 01:18:54;;;;;;;18.75;6.82;;;;;;;16.24;64.84;99166.84;2626930;27;20003;-78
2024/04/09 01:20:12;;;;;;;17.67;6.40;;;;;;;16.24;65.15;99166.84;2626904;27;20003;-77
2024/04/09 01:21:26;;;;;;;25.52;7.57;;;;;;;16.21;65.21;99171.41;2628819;27;20146;-78
2024/04/09 01:22:40;;;;;;;18.13;6.93;;;;;;;16.21;65.86;99180.16;2639823;27;20042;-78
2024/04/09 01:23:53;;;;;;;29.20;7.65;;;;;;;16.21;65.90;99185.44;2654219;27;20017;-78
2024/04/09 01:25:08;;;;;;;17.20;7.25;;;;;;;16.22;66.32;99189.75;2639813;27;20348;-77
2024/04/09 01:26:23;;;;;;;22.23;6.93;;;;;;;16.22;66.38;99197.66;2639503;27;20006;-77
2024/04/09 01:27:37;;;;;;;14.75;5.00;;;;;;;16.20;66.23;99212.66;2627522;27;20002;-78
2024/04/09 01:28:50;;;;;;;22.55;6.53;;;;;;;16.18;66.78;99217.16;2627514;27;20475;-78
2024/04/09 01:30:08;;;;;;;22.92;6.90;;;;;;;16.14;66.59;99224.38;2638307;27;20009;-77
2024/04/09 01:31:23;;;;;;;20.65;6.07;;;;;;;16.09;66.10;99229.06;2636594;27;20006;-77
2024/04/09 01:32:40;;;;;;;20.20;7.00;;;;;;;16.08;65.74;99227.38;2627062;27;20011;-77
2024/04/09 01:33:53;;;;;;;25.02;7.30;;;;;;;16.10;64.98;99228.09;2627622;27;20054;-77
2024/04/09 01:35:07;;;;;;;22.20;7.50;;;;;;;16.13;64.28;99227.97;2627636;27;20015;-77
2024/04/09 01:36:20;;;;;;;35.45;7.30;;;;;;;16.18;63.75;99226.84;2626385;27;20807;-77
2024/04/09 01:37:34;;;;;;;24.98;7.65;;;;;;;16.21;63.32;99221.41;2637501;27;19999;-77
2024/04/09 01:38:48;;;;;;;26.50;5.93;;;;;;;16.25;62.89;99221.16;2637460;27;20162;-75
2024/04/09 01:40:02;;;;;;;22.73;8.30;;;;;;;16.28;63.15;99215.72;2626281;27;20062;-75
2024/04/09 01:41:16;;;;;;;29.58;8.48;;;;;;;16.31;62.55;99217.34;2637804;27;20370;-76
2024/04/09 01:42:30;;;;;;;27.05;6.53;;;;;;;16.32;63.31;99224.31;2638685;27;20010;-76
2024/04/09 01:43:43;;;;;;;16.83;5.72;;;;;;;16.33;63.84;99231.28;2638077;27;20003;-76
2024/04/09 01:44:57;;;;;;;20.60;5.35;;;;;;;16.29;64.10;99232.41;2637501;27;20329;-76
2024/04/09 01:46:10;;;;;;;17.02;5.70;;;;;;;16.27;64.46;99244.78;2638069;27;20014;-76
2024/04/09 01:47:24;;;;;;;20.40;7.43;;;;;;;16.23;64.69;99235.34;2637654;27;20441;-75
2024/04/09 01:48:37;;;;;;;14.57;6.18;;;;;;;16.23;64.92;99224.81;2637710;27;20397;-76
2024/04/09 01:49:50;;;;;;;17.52;6.25;;;;;;;16.22;65.16;99231.03;2637269;27;20007;-76
2024/04/09 01:51:13;;;;;;;16.92;6.40;;;;;;;16.23;64.68;99230.06;2637485;27;20424;-76
2024/04/09 01:52:26;;;;;;;29.00;8.32;;;;;;;16.22;64.55;99225.75;2627966;27;20055;-76
2024/04/09 01:53:43;;;;;;;23.27;8.30;;;;;;;16.21;64.30;99227.56;2626411;27;20050;-76
2024/04/09 01:54:56;;;;;;;18.25;6.78;;;;;;;16.18;64.85;99232.94;2627391;27;20162;-76
2024/04/09 01:56:10;;;;;;;20.48;7.10;;;;;;;16.17;64.80;99249.69;2625935;27;20480;-76
2024/04/09 01:57:23;;;;;;;27.25;6.40;;;;;;;16.14;64.78;99260.41;2626274;27;20353;-75
2024/04/09 01:58:36;;;;;;;28.70;5.82;;;;;;;16.11;64.57;99260.56;2626524;27;20006;-76
2024/04/09 01:59:49;;;;;;;26.98;6.85;;;;;;;16.10;64.23;99266.75;2637182;27;20080;-75
2024/04/09 02:01:06;;;;;;;22.42;5.90;;;;;;;16.09;63.99;99262.41;2637356;27;20938;-76
2024/04/09 02:02:20;;;;;;;18.90;6.65;;;;;;;16.08;63.67;99255.44;2626821;27;20427;-76
2024/04/09 02:03:34;;;;;;;27.17;9.32;;;;;;;16.08;62.73;99256.31;2625904;27;20424;-76
2024/04/09 02:04:48;;;;;;;39.40;8.82;;;;;;;16.11;62.24;99258.78;2626619;27;20023;-76
2024/04/09 02:06:02;;;;;;;24.73;8.27;;;;;;;16.14;61.60;99250.72;2637922;27;20014;-76
2024/04/09 02:07:15;;;;;;;25.05;7.80;;;;;;;16.17;60.68;99238.31;2636869;27;20490;-76
2024/04/09 02:08:28;;;;;;;28.63;7.70;;;;;;;16.21;60.67;99237.19;2636544;27;20011;-76
2024/04/09 02:09:42;;;;;;;22.42;8.48;;;;;;;16.26;60.07;99243.06;2637004;27;20013;-77
2024/04/09 02:10:55;;;;;;;34.97;8.52;;;;;;;16.30;59.90;99239.34;2626210;27;20021;-77
2024/04/09 02:12:09;;;;;;;25.10;7.78;;;;;;;16.33;60.14;99244.44;2609487;27;20017;-76
2024/04/09 02:13:25;;;;;;;32.95;8.25;;;;;;;16.34;59.90;99249.63;2626942;27;20003;-76
2024/04/09 02:14:38;;;;;;;26.40;7.43;;;;;;;16.36;59.90;99246.91;2638380;27;20007;-76
2024/04/09 02:15:52;;;;;;;26.10;7.45;;;;;;;16.34;60.00;99241.72;2636670;27;20007;-77
2024/04/09 02:17:05;;;;;;;25.45;8.20;;;;;;;16.36;59.83;99249.53;2625755;27;20011;-76
2024/04/09 02:18:18;;;;;;;33.47;7.15;;;;;;;16.35;59.57;99246.06;2637745;27;20007;-76
2024/04/09 02:19:31;;;;;;;26.80;7.32;;;;;;;16.37;59.54;99230.19;2643061;27;20006;-77
2024/04/09 02:20:45;;;;;;;22.10;7.47;;;;;;;16.40;58.86;99240.53;2626232;27;20445;-75
2024/04/09 02:21:58;;;;;;;25.30;8.32;;;;;;;16.43;58.64;99237.72;2620724;27;20012;-76
2024/04/09 02:23:12;;;;;;;33.08;6.88;;;;;;;16.47;58.36;99241.91;2626730;27;20011;-77
2024/04/09 02:24:26;;;;;;;30.27;7.85;;;;;;;16.51;58.44;99248.69;2637868;27;20039;-75
2024/04/09 02:25:40;;;;;;;31.13;7.88;;;;;;;16.54;58.33;99251.16;2629952;27;20003;-76
2024/04/09 02:26:53;;;;;;;25.52;8.25;;;;;;;16.54;59.07;99245.88;2635961;27;20340;-77
2024/04/09 02:28:08;;;;;;;33.40;9.57;;;;;;;16.54;58.93;99243.25;2653019;27;20002;-77
2024/04/09 02:29:21;;;;;;;29.65;7.05;;;;;;;16.54;58.98;99243.25;2637499;27;20017;-77
2024/04/09 02:30:34;;;;;;;25.25;7.22;;;;;;;16.53;59.22;99245.97;2643384;27;20018;-77
2024/04/09 02:31:47;;;;;;;42.63;8.82;;;;;;;16.49;59.41;99250.56;2639537;27;20364;-77
2024/04/09 02:33:01;;;;;;;29.88;8.00;;;;;;;16.46;60.19;99249.88;2637303;27;19999;-77
2024/04/09 02:34:14;;;;;;;29.75;6.63;;;;;;;16.43;60.08;99255.31;2625935;27;20018;-77
2024/04/09 02:35:28;;;;;;;26.92;6.45;;;;;;;16.40;60.58;99255.50;2627283;27;20647;-77
2024/04/09 02:36:42;;;;;;;23.40;9.00;;;;;;;16.36;60.74;99262.69;2626436;27;20014;-76
2024/04/09 02:37:55;;;;;;;27.38;9.52;;;;;;;16.32;60.42;99261.19;2637258;27;20014;-77
2024/04/09 02:39:08;;;;;;;25.58;7.35;;;;;;;16.32;60.03;99255.91;2637584;27;20038;-77
2024/04/09 02:40:21;;;;;;;42.40;9.68;;;;;;;16.32;59.95;99269.09;2636545;27;20460;-77
2024/04/09 02:41:36;;;;;;;19.05;6.95;;;;;;;16.34;59.90;99273.34;2626104;27;20500;-77
2024/04/09 02:42:50;;;;;;;31.38;10.95;;;;;;;16.36;60.26;99275.88;2626791;27;20461;-76
2024/04/09 02:44:03;;;;;;;27.17;6.38;;;;;;;16.34;60.00;99278.59;2626226;27;20018;-77
2024/04/09 02:45:17;;;;;;;44.33;9.05;;;;;;;16.36;59.59;99278.50;2626290;27;20011;-76
2024/04/09 02:46:31;;;;;;;33.88;8.88;;;;;;;16.41;59.23;99287.00;2625819;27;20003;-77
2024/04/09 02:47:44;;;;;;;27.60;6.30;;;;;;;16.45;58.96;99288.53;2625311;27;20013;-76
2024/04/09 02:48:58;;;;;;;25.38;7.95;;;;;;;16.51;59.16;99285.56;2626201;27;20003;-77
2024/04/09 02:50:12;;;;;;;25.52;6.88;;;;;;;16.57;58.89;99281.72;2637335;27;20007;-77
2024/04/09 02:51:25;;;;;;;25.50;8.63;;;;;;;16.65;59.11;99297.13;2636841;27;20019;-76
2024/04/09 02:52:38;;;;;;;24.95;8.23;;;;;;;16.71;59.22;99302.91;2637855;27;20006;-76
2024/04/09 02:53:51;;;;;;;24.65;6.82;;;;;;;16.76;59.04;99302.66;2636959;27;20014;-77
2024/04/09 02:55:06;;;;;;;25.33;6.88;;;;;;;16.81;59.01;99302.44;2637709;27;20011;-76
2024/04/09 02:56:19;;;;;;;37.67;7.88;;;;;;;16.85;58.55;99299.53;2637802;27;20007;-76
2024/04/09 02:57:32;;;;;;;22.98;7.35;;;;;;;16.92;58.86;99310.59;2643491;27;20013;-76
2024/04/09 02:58:45;;;;;;;30.40;7.60;;;;;;;16.97;58.79;99309.38;2626603;27;20011;-76
2024/04/09 02:59:59;;;;;;;22.13;7.05;;;;;;;17.03;58.75;99299.44;2625763;27;20018;-77
2024/04/09 03:01:12;;;;;;;20.52;6.47;;;;;;;17.06;58.69;99294.81;2637832;27;20022;-77
2024/04/09 03:02:25;;;;;;;21.42;7.70;;;;;;;17.07;58.60;99293.91;2637425;27;20003;-77
2024/04/09 03:03:38;;;;;;;30.55;7.18;;;;;;;17.10;58.58;99290.25;2625617;27;20007;-77
2024/04/09 03:04:52;;;;;;;27.02;6.43;;;;;;;17.13;58.52;99290.06;2634903;27;20054;-77
2024/04/09 03:06:09;;;;;;;26.58;7.80;;;;;;;17.16;58.52;99295.16;2637379;27;20010;-76
2024/04/09 03:07:23;;;;;;;21.52;6.32;;;;;;;17.18;58.65;99298.56;2644347;27;20496;-77
2024/04/09 03:08:36;;;;;;;24.55;6.65;;;;;;;17.18;58.64;99301.19;2626035;27;20003;-77
2024/04/09 03:09:49;;;;;;;33.47;10.25;;;;;;;17.16;58.08;99306.53;2642740;27;20081;-77
2024/04/09 03:11:23;;;;;;;26.95;7.25;;;;;;;17.17;58.64;99304.78;2637273;27;20007;-77
2024/04/09 03:12:36;;;;;;;;;;;;;;;17.13;58.78;99308.50;2637157;27;20085;-76
2024/04/09 03:13:49;;;;;;;25.65;7.05;;;;;;;17.08;58.56;99307.94;2625637;27;19927;-77
2024/04/09 03:15:03;;;;;;;31.55;6.72;;;;;;;17.05;58.76;99306.31;2634112;27;20018;-76
2024/04/09 03:16:20;;;;;;;19.42;8.02;;;;;;;17.03;58.88;99315.25;2624397;27;20448;-76
2024/04/09 03:17:34;;;;;;;23.15;6.32;;;;;;;16.98;59.01;99313.72;2643869;27;20003;-77
2024/04/09 03:18:50;;;;;;;27.70;6.07;;;;;;;16.94;59.37;99312.19;2637137;27;20003;-77
2024/04/09 03:20:04;;;;;;;21.92;6.78;;;;;;;16.90;59.24;99329.09;2596379;27;20048;-77
2024/04/09 03:21:18;;;;;;;28.50;7.40;;;;;;;16.88;59.31;99327.50;2615775;27;20003;-77
2024/04/09 03:22:31;;;;;;;34.97;6.90;;;;;;;16.85;59.66;99336.41;2636991;27;20525;-77
2024/04/09 03:23:44;;;;;;;40.17;8.85;;;;;;;16.83;59.61;99330.41;2635490;27;20031;-77
2024/04/09 03:24:58;;;;;;;35.95;8.10;;;;;;;16.83;59.58;99338.31;2626007;27;20011;-77
2024/04/09 03:26:12;;;;;;;36.83;7.68;;;;;;;16.83;59.38;99334.81;2637092;27;20014;-76
2024/04/09 03:27:25;;;;;;;35.55;6.45;;;;;;;16.82;59.10;99331.31;2636839;27;20015;-76
2024/04/09 03:28:38;;;;;;;22.30;7.22;;;;;;;16.82;59.13;99331.31;2637938;27;20452;-77
2024/04/09 03:29:52;;;;;;;19.67;5.97;;;;;;;16.81;59.00;99334.91;2636492;27;20731;-77
2024/04/09 03:31:05;;;;;;;20.20;6.43;;;;;;;16.82;59.33;99335.75;2642684;27;20014;-77
2024/04/09 03:32:19;;;;;;;22.58;6.75;;;;;;;16.81;59.55;99337.53;2636306;27;20003;-77
2024/04/09 03:33:33;;;;;;;26.67;7.38;;;;;;;16.81;59.56;99344.59;2637221;27;20055;-77
2024/04/09 03:34:46;;;;;;;24.73;7.00;;;;;;;16.79;59.53;99342.03;2637057;27;20006;-77
2024/04/09 03:36:01;;;;;;;25.88;7.78;;;;;;;16.78;59.15;99335.91;2642314;27;20495;-77
2024/04/09 03:37:14;;;;;;;22.30;6.88;;;;;;;16.79;59.24;99347.31;2619565;27;20019;-77
2024/04/09 03:38:27;;;;;;;27.80;8.52;;;;;;;16.80;59.06;99354.25;2625589;27;20022;-76
2024/04/09 03:39:40;;;;;;;29.85;6.72;;;;;;;16.79;59.26;99348.16;2630641;27;20441;-77
2024/04/09 03:40:55;;;;;;;19.55;6.40;;;;;;;16.80;58.74;99343.72;2634143;27;20003;-77
2024/04/09 03:42:08;;;;;;;13.23;5.13;;;;;;;16.82;58.51;99356.81;2642186;27;20014;-77
2024/04/09 03:43:22;;;;;;;15.35;4.70;;;;;;;16.83;58.51;99358.50;2647616;27;20352;-76
2024/04/09 03:44:35;;;;;;;22.70;6.00;;;;;;;16.84;58.15;99362.88;2653438;27;20759;-77
2024/04/09 03:46:07;;;;;;;17.77;4.45;;;;;;;16.86;57.82;99364.47;2629550;27;20111;-76
2024/04/09 03:47:20;;;;;;;14.57;4.75;;;;;;;16.85;57.51;99352.22;2629184;27;20018;-76
2024/04/09 03:48:34;;;;;;;14.55;4.70;;;;;;;16.86;57.33;99367.13;2625585;27;20003;-76
2024/04/09 03:49:48;;;;;;;25.13;4.53;;;;;;;16.87;57.00;99381.13;2637082;27;20012;-76
2024/04/09 03:51:01;;;;;;;28.75;5.03;;;;;;;16.87;56.96;99389.88;2636782;27;20018;-77
2024/04/09 03:52:14;;;;;;;16.83;4.20;;;;;;;16.88;57.04;99394.25;2625004;27;20035;-76
2024/04/09 03:53:27;;;;;;;15.43;5.22;;;;;;;16.87;56.47;99384.63;2625834;27;20078;-76
2024/04/09 03:54:41;;;;;;;17.33;3.97;;;;;;;16.88;56.24;99388.09;2625604;27;20006;-76
2024/04/09 03:55:54;;;;;;;20.65;5.30;;;;;;;16.91;56.06;99398.47;2608148;27;20115;-77
2024/04/09 03:57:07;;;;;;;20.95;4.97;;;;;;;16.92;55.60;99392.28;2625474;27;20011;-77
2024/04/09 03:58:20;;;;;;;13.85;4.10;;;;;;;16.94;56.02;99396.53;2646573;27;20003;-77
2024/04/09 03:59:33;;;;;;;23.15;4.82;;;;;;;16.94;55.70;99391.25;2641373;27;20095;-76
2024/04/09 04:00:57;;;;;;;18.15;3.50;;;;;;;16.95;55.83;99385.03;2647673;27;20078;-77
2024/04/09 04:02:10;;;;;;;13.30;4.75;;;;;;;16.93;55.72;99375.53;2636263;27;20539;-77
2024/04/09 04:03:25;;;;;;;13.80;5.10;;;;;;;16.94;55.55;99377.25;2641930;27;20003;-76
2024/04/09 04:04:38;;;;;;;9.90;2.78;;;;;;;16.94;55.23;99382.50;2637119;27;20443;-77
2024/04/09 04:05:56;;;;;;;11.05;5.03;;;;;;;16.94;55.26;99390.41;2636909;27;19999;-76
2024/04/09 04:07:15;;;;;;;12.82;3.53;;;;;;;16.94;55.08;99379.88;2636094;27;20413;-77
2024/04/09 04:08:30;;;;;;;11.80;3.70;;;;;;;16.93;54.88;99394.81;2626054;27;20039;-77
2024/04/09 04:09:43;;;;;;;6.20;3.13;;;;;;;16.93;54.81;99396.59;2636589;27;20078;-77
2024/04/09 04:10:58;;;;;;;6.95;2.42;;;;;;;16.93;54.59;99407.13;2636194;27;20015;-77
2024/04/09 04:12:12;;;;;;;17.38;3.67;;;;;;;16.92;54.43;99402.81;2625529;27;20030;-76
2024/04/09 04:13:28;;;;;;;11.02;3.10;;;;;;;16.92;54.31;99405.47;2625585;27;20003;-76
2024/04/09 04:14:41;;;;;;;7.88;2.83;;;;;;;16.92;54.06;99408.09;2625803;27;20003;-76
2024/04/09 04:16:09;;;;;;;14.65;4.03;;;;;;;16.93;53.72;99421.16;2635878;27;20014;-76
2024/04/09 04:17:22;;;;;;;9.48;3.10;;;;;;;16.93;54.05;99434.34;2635520;27;20022;-75
2024/04/09 04:18:46;;;;;;;8.10;2.78;;;;;;;16.91;53.99;99436.22;2625102;27;20065;-75
2024/04/09 04:19:59;;;;;;;9.07;2.22;;;;;;;16.89;53.93;99448.63;2636403;27;20007;-76
2024/04/09 04:21:14;;;;;;;7.35;1.60;;;;;;;16.90;53.83;99450.31;2648710;27;20472;-76
2024/04/09 04:22:27;;;;;;;6.88;2.63;;;;;;;16.88;53.56;99449.59;2625579;27;20022;-76
2024/04/09 04:23:41;;;;;;;13.98;2.42;;;;;;;16.89;53.64;99460.97;2636176;27;20348;-76
2024/04/09 04:24:55;;;;;;;9.43;2.47;;;;;;;16.88;53.44;99472.41;2636367;27;20487;-76
2024/04/09 04:26:10;;;;;;;5.13;1.67;;;;;;;16.87;53.51;99458.41;2625280;27;20051;-76
2024/04/09 04:27:23;;;;;;;4.25;2.13;;;;;;;16.87;53.26;99466.31;2609249;27;20019;-76
2024/04/09 04:28:38;;;;;;;10.30;2.13;;;;;;;16.86;53.54;99463.78;2621761;27;20116;-75
2024/04/09 04:29:52;;;;;;;5.15;1.60;;;;;;;16.85;53.72;99467.31;2634606;27;20007;-76
2024/04/09 04:31:09;;;;;;;4.65;1.33;;;;;;;16.85;53.57;99460.25;2626809;27;20042;-76
2024/04/09 04:32:22;;;;;;;7.70;1.98;;;;;;;16.84;53.41;99466.47;2627467;27;19995;-76
2024/04/09 04:33:36;;;;;;;13.73;2.67;;;;;;;16.84;53.43;99461.22;2627061;27;20420;-76
2024/04/09 04:34:52;;;;;;;11.65;2.22;;;;;;;16.83;53.50;99463.91;2638483;27;20340;-76
2024/04/09 04:36:05;;;;;;;7.18;2.00;;;;;;;16.86;53.38;99466.41;2637320;27;20010;-76
2024/04/09 04:37:19;;;;;;;4.45;1.45;;;;;;;16.86;53.50;99467.25;2626538;27;19999;-76
2024/04/09 04:38:32;;;;;;;4.97;2.75;;;;;;;16.87;53.63;99476.00;2626333;27;20014;-76
2024/04/09 04:39:46;;;;;;;5.03;1.83;;;;;;;16.86;53.48;99475.16;2626533;27;20700;-76
2024/04/09 04:40:59;;;;;;;7.95;3.03;;;;;;;16.87;53.74;99482.13;2637743;27;20027;-76
2024/04/09 04:42:13;;;;;;;5.60;1.73;;;;;;;16.86;53.71;99479.59;2650025;27;19998;-76
2024/04/09 04:43:26;;;;;;;13.10;1.65;;;;;;;16.86;53.72;99495.41;2628000;27;20035;-75
2024/04/09 04:44:39;;;;;;;10.30;2.45;;;;;;;16.85;53.64;99493.66;2638260;27;20014;-76
2024/04/09 04:45:54;;;;;;;6.90;2.13;;;;;;;16.84;53.52;99497.25;2641251;27;20007;-76
2024/04/09 04:47:07;;;;;;;5.82;2.20;;;;;;;16.84;53.64;99498.09;2648579;27;19999;-76
2024/04/09 04:48:21;;;;;;;6.03;3.22;;;;;;;16.83;54.04;99499.03;2638435;27;20014;-76
2024/04/09 04:49:34;;;;;;;4.25;1.58;;;;;;;16.82;54.10;99505.22;2654463;27;20458;-76
2024/04/09 04:50:48;;;;;;;7.18;2.25;;;;;;;16.81;54.17;99508.81;2637736;27;20006;-76
2024/04/09 04:52:01;;;;;;;7.18;2.15;;;;;;;16.80;54.38;99504.44;2638941;27;20014;-75
2024/04/09 04:53:14;;;;;;;7.70;2.75;;;;;;;16.79;54.24;99503.59;2649406;27;20121;-76
2024/04/09 04:54:28;;;;;;;23.20;4.03;;;;;;;16.78;54.19;99503.69;2654670;27;19998;-76
2024/04/09 04:55:41;;;;;;;9.13;1.92;;;;;;;16.78;54.58;99506.34;2648454;27;20009;-75
2024/04/09 04:56:54;;;;;;;8.77;2.60;;;;;;;16.78;54.52;99499.28;2637939;27;19999;-76
2024/04/09 04:58:07;;;;;;;5.97;2.28;;;;;;;16.79;54.83;99494.84;2638977;27;20010;-76
2024/04/09 04:59:21;;;;;;;9.82;2.20;;;;;;;16.78;54.77;99501.06;2626459;27;20031;-76
2024/04/09 05:00:36;;;;;;;7.13;2.10;;;;;;;16.76;54.99;99495.00;2638274;27;20007;-76
2024/04/09 05:01:49;;;;;;;8.95;2.75;;;;;;;16.76;55.47;99502.91;2637603;27;20014;-76
2024/04/09 05:03:02;;;;;;;14.60;3.17;;;;;;;16.73;55.71;99508.34;2637586;27;20022;-76
2024/04/09 05:04:15;;;;;;;7.10;1.92;;;;;;;16.72;55.80;99511.88;2654082;27;20347;-76
2024/04/09 05:05:29;;;;;;;11.32;2.63;;;;;;;16.68;56.01;99513.81;2637565;27;20396;-75
2024/04/09 05:06:42;;;;;;;8.20;1.98;;;;;;;16.66;56.23;99515.69;2643437;27;19996;-75
2024/04/09 05:07:56;;;;;;;7.50;1.73;;;;;;;16.64;56.98;99524.59;2648507;27;20074;-75
2024/04/09 05:09:11;;;;;;;6.70;2.55;;;;;;;16.60;57.26;99518.66;2637710;27;19999;-76
2024/04/09 05:10:25;;;;;;;10.07;3.42;;;;;;;16.57;57.26;99526.69;2643808;27;20051;-76
2024/04/09 05:11:39;;;;;;;12.88;2.88;;;;;;;16.55;57.79;99531.19;2647608;27;20420;-76
2024/04/09 05:12:54;;;;;;;8.23;2.28;;;;;;;16.53;58.28;99541.81;2640620;27;20011;-77
2024/04/09 05:14:07;;;;;;;8.27;2.03;;;;;;;16.51;58.70;99527.00;2637104;27;20460;-76
2024/04/09 05:15:22;;;;;;;10.10;2.63;;;;;;;16.47;58.55;99534.22;2637759;27;20014;-76
2024/04/09 05:16:35;;;;;;;10.30;3.15;;;;;;;16.44;58.87;99537.00;2637017;27;20007;-76
2024/04/09 05:17:49;;;;;;;16.10;3.45;;;;;;;16.43;59.19;99530.03;2626514;27;20011;-76
2024/04/09 05:19:02;;;;;;;5.40;2.13;;;;;;;16.41;59.53;99529.25;2643636;27;19998;-76
2024/04/09 05:20:17;;;;;;;11.77;2.75;;;;;;;16.39;59.46;99533.75;2653626;27;20010;-76
2024/04/09 05:21:30;;;;;;;4.85;2.28;;;;;;;16.35;59.68;99535.69;2631580;27;19999;-76
2024/04/09 05:22:44;;;;;;;4.93;1.33;;;;;;;16.36;60.00;99553.16;2615399;27;20018;-76
2024/04/09 05:23:58;;;;;;;4.63;1.75;;;;;;;16.31;60.22;99556.97;2625619;27;20039;-76
2024/04/09 05:25:12;;;;;;;4.70;1.92;;;;;;;16.27;60.38;99555.44;2643279;27;19998;-76
2024/04/09 05:26:25;;;;;;;6.25;1.77;;;;;;;16.24;60.64;99559.06;2642511;27;20497;-76
2024/04/09 05:27:39;;;;;;;10.27;2.92;;;;;;;16.22;60.39;99563.56;2653651;27;20070;-77
2024/04/09 05:28:52;;;;;;;9.88;2.75;;;;;;;16.18;61.11;99562.00;2648051;27;20079;-75
2024/04/09 05:30:07;;;;;;;5.60;1.80;;;;;;;16.17;61.23;99562.09;2635803;27;20473;-76
2024/04/09 05:31:20;;;;;;;8.50;2.42;;;;;;;16.12;61.58;99578.94;2609020;27;20000;-75
2024/04/09 05:32:39;;;;;;;8.75;2.75;;;;;;;16.10;61.13;99570.25;2626674;27;19999;-75
2024/04/09 05:33:52;;;;;;;6.97;1.50;;;;;;;16.09;61.53;99587.00;2638802;27;20047;-76
2024/04/09 05:35:06;;;;;;;11.23;3.00;;;;;;;16.09;61.50;99587.00;2638410;27;19999;-76
2024/04/09 05:36:19;;;;;;;5.00;1.45;;;;;;;16.09;61.69;99584.34;2636980;27;20003;-76
2024/04/09 05:37:33;;;;;;;7.40;1.90;;;;;;;16.10;62.11;99595.72;2626081;27;20013;-75
2024/04/09 05:38:46;;;;;;;10.65;2.75;;;;;;;16.10;62.13;99601.00;2636869;27;20458;-75
2024/04/09 05:39:59;;;;;;;10.65;2.85;;;;;;;16.11;61.73;99598.31;2636989;27;20368;-76
2024/04/09 05:41:12;;;;;;;13.38;4.20;;;;;;;16.11;61.77;99602.72;2643032;27;20423;-76
2024/04/09 05:42:26;;;;;;;3.55;1.88;;;;;;;16.14;62.22;99603.41;2637565;27;20073;-76
2024/04/09 05:43:39;;;;;;;6.50;2.63;;;;;;;16.18;62.28;99619.06;2633224;27;20015;-76
2024/04/09 05:44:52;;;;;;;6.15;1.52;;;;;;;16.21;62.25;99614.50;2633565;27;20046;-76
2024/04/09 05:46:06;;;;;;;7.40;1.92;;;;;;;16.27;62.30;99618.63;2626511;27;20035;-76